Terminal Aerodrome Forecast
Issued by NWS

Home | Current Version | Previous Version | Text Only | Print | Product List | Glossary On
Versions: 1 2 3 4 5 6 7 8 9 10 11 12 13
000
FTUS42 KTAE 291720
TAFDHN
TAF
KDHN 291720Z 2918/3018 33008KT P6SM SCT050
     FM291900 31008KT P6SM VCTS BKN040CB
      TEMPO 2920/2924 VRB20G30KT 1SM +TSRA BKN030CB
     FM300400 28004KT P6SM SCT100 BKN250=

USA.gov is the U.S. government's official web portal to all federal, state and local government web resources and services.